Time;durP1;ratioP1;P1;durP2;ratioP2;P2;SDS_P1;SDS_P2;PMS_P1;PMS_P2;Temp;Humidity;BMP_temperature;BMP_pressure;BME280_temperature;BME280_humidity;BME280_pressure;Samples;Min_cycle;Max_cycle;Signal;HPM_P1;HPM_P2
2021/12/28 00:02:05;;;;;;;21.50;15.80;;;23.50;42.60;;;;;;214094;1309;25374;-58
2021/12/28 00:07:13;;;;;;;21.80;15.70;;;23.30;43.10;;;;;;214174;1309;22802;-60
2021/12/28 00:12:17;;;;;;;25.60;16.20;;;23.20;43.20;;;;;;214264;1310;23965;-57
2021/12/28 00:23:04;;;;;;;20.90;15.70;;;22.90;43.30;;;;;;214373;1309;24279;-58
2021/12/28 00:28:12;;;;;;;27.70;17.20;;;22.80;43.70;;;;;;214130;1309;22764;-57
2021/12/28 00:33:24;;;;;;;28.00;17.40;;;22.70;44.20;;;;;;214031;1309;25617;-57
2021/12/28 00:38:32;;;;;;;25.70;16.80;;;22.50;45.10;;;;;;213948;1309;22669;-57
2021/12/28 00:43:45;;;;;;;25.40;16.80;;;22.50;45.50;;;;;;214076;1309;24290;-59
2021/12/28 00:48:58;;;;;;;24.60;15.90;;;22.20;45.90;;;;;;214194;1309;25383;-55
2021/12/28 00:54:05;;;;;;;22.20;15.50;;;22.20;46.20;;;;;;214193;1309;25417;-58
2021/12/28 00:59:16;;;;;;;25.20;15.30;;;22.40;44.90;;;;;;214045;1311;25394;-56
2021/12/28 01:04:24;;;;;;;25.00;16.10;;;23.00;44.10;;;;;;212701;1312;1511920;-57
2021/12/28 01:09:31;;;;;;;23.90;15.80;;;23.30;43.40;;;;;;214306;1312;22815;-58
2021/12/28 01:14:37;;;;;;;21.40;15.40;;;23.40;42.70;;;;;;214182;1312;24357;-62
2021/12/28 01:19:44;;;;;;;24.10;15.90;;;23.50;42.40;;;;;;214075;1312;24339;-57
2021/12/28 01:24:49;;;;;;;22.80;16.30;;;23.60;42.10;;;;;;214293;1309;22841;-57
2021/12/28 01:29:55;;;;;;;21.30;14.70;;;23.70;42.20;;;;;;214077;1312;25342;-58
2021/12/28 01:35:01;;;;;;;25.40;15.40;;;23.70;42.10;;;;;;214079;1312;25362;-57
2021/12/28 01:40:30;;;;;;;24.00;16.70;;;23.70;41.90;;;;;;214183;1309;25658;-58
2021/12/28 01:45:59;;;;;;;22.10;14.90;;;23.80;41.40;;;;;;214190;1309;25649;-58
2021/12/28 01:51:28;;;;;;;23.50;16.30;;;23.70;41.60;;;;;;214149;1309;23231;-56
2021/12/28 01:56:40;;;;;;;24.30;16.00;;;23.60;41.50;;;;;;214189;1309;25528;-56
2021/12/28 02:01:56;;;;;;;22.50;15.20;;;23.60;41.70;;;;;;214282;1311;24313;-57
2021/12/28 02:07:14;;;;;;;24.40;15.70;;;23.50;41.70;;;;;;214125;1309;24255;-58
2021/12/28 02:12:29;;;;;;;24.10;16.30;;;23.40;41.80;;;;;;214092;1309;25594;-57
2021/12/28 02:17:39;;;;;;;22.10;16.20;;;23.30;41.80;;;;;;214087;1312;25253;-61
2021/12/28 02:22:50;;;;;;;23.00;15.90;;;23.30;41.70;;;;;;213942;1312;24277;-58
2021/12/28 02:27:58;;;;;;;24.90;16.40;;;23.30;41.70;;;;;;214064;1313;24340;-57
2021/12/28 02:33:07;;;;;;;23.50;15.60;;;23.30;41.80;;;;;;214179;1309;22614;-57
2021/12/28 02:38:21;;;;;;;21.50;15.50;;;23.40;41.80;;;;;;214135;1313;25491;-57
2021/12/28 02:43:27;;;;;;;22.10;15.20;;;23.50;41.50;;;;;;214237;1309;22599;-56
2021/12/28 02:48:38;;;;;;;20.20;14.50;;;23.60;41.30;;;;;;214001;1316;22580;-58
2021/12/28 02:53:44;;;;;;;24.40;16.60;;;23.60;41.40;;;;;;214198;1318;25824;-58
2021/12/28 02:58:51;;;;;;;22.60;16.30;;;23.60;40.50;;;;;;214189;1312;22593;-56
2021/12/28 03:04:04;;;;;;;23.90;16.70;;;23.60;41.10;;;;;;214213;1316;25331;-57
2021/12/28 03:09:07;;;;;;;21.30;14.80;;;23.60;41.20;;;;;;214314;1309;22564;-56
2021/12/28 03:14:11;;;;;;;23.50;16.10;;;23.50;41.30;;;;;;214221;1309;22565;-57
2021/12/28 03:19:14;;;;;;;22.60;15.60;;;23.50;41.30;;;;;;214027;1306;24317;-57
2021/12/28 03:24:19;;;;;;;24.00;16.40;;;23.50;41.20;;;;;;214112;1309;24291;-58
2021/12/28 03:29:23;;;;;;;24.10;16.80;;;23.50;41.30;;;;;;214154;1312;22730;-57
2021/12/28 03:34:27;;;;;;;24.10;15.90;;;23.50;41.30;;;;;;214180;1312;28043;-58
2021/12/28 03:39:31;;;;;;;23.20;16.30;;;23.50;41.20;;;;;;213639;1312;22616;-62
2021/12/28 03:44:35;;;;;;;20.90;15.60;;;23.50;41.00;;;;;;213439;1312;22606;-53
2021/12/28 03:49:39;;;;;;;23.60;15.60;;;23.50;40.90;;;;;;214221;1310;25523;-57
2021/12/28 03:54:42;;;;;;;22.60;16.00;;;23.60;41.00;;;;;;214156;1309;22680;-58
2021/12/28 03:59:47;;;;;;;22.40;16.20;;;23.60;41.40;;;;;;214252;1315;25366;-59
2021/12/28 04:04:51;;;;;;;22.70;15.60;;;23.60;41.50;;;;;;214240;1309;22647;-61
2021/12/28 04:14:59;;;;;;;23.90;16.30;;;23.60;41.00;;;;;;214289;1312;24335;-58
2021/12/28 04:20:13;;;;;;;23.30;16.00;;;23.50;41.00;;;;;;214357;1315;25384;-57
2021/12/28 04:25:18;;;;;;;22.70;16.20;;;23.50;41.40;;;;;;214225;1312;24252;-58
2021/12/28 04:30:21;;;;;;;21.50;16.40;;;23.50;41.10;;;;;;214223;1309;25570;-57
2021/12/28 04:35:26;;;;;;;21.70;15.50;;;23.50;40.90;;;;;;214190;1312;24349;-58
2021/12/28 04:40:30;;;;;;;22.20;16.20;;;23.50;40.90;;;;;;214185;1312;22795;-57
2021/12/28 04:45:36;;;;;;;22.50;16.60;;;23.50;41.30;;;;;;214020;1312;22659;-58
2021/12/28 04:50:42;;;;;;;22.80;16.30;;;23.60;41.40;;;;;;214228;1309;24274;-57
2021/12/28 04:55:48;;;;;;;20.50;15.40;;;23.60;40.70;;;;;;214127;1316;25516;-56
2021/12/28 05:00:53;;;;;;;22.70;16.40;;;23.70;40.50;;;;;;214052;1316;22800;-57
2021/12/28 05:05:57;;;;;;;21.20;15.30;;;23.80;40.60;;;;;;214156;1313;22636;-56
2021/12/28 05:11:01;;;;;;;22.20;16.20;;;23.80;41.30;;;;;;214116;1312;24322;-58
2021/12/28 05:16:04;;;;;;;22.10;16.30;;;23.80;40.60;;;;;;214201;1313;22574;-57
2021/12/28 05:21:08;;;;;;;23.60;16.10;;;23.70;40.70;;;;;;214174;1312;25580;-58
2021/12/28 05:26:12;;;;;;;22.20;16.50;;;23.60;40.80;;;;;;214199;1311;24351;-57
2021/12/28 05:31:15;;;;;;;21.90;16.20;;;23.60;40.80;;;;;;214185;1309;22571;-56
2021/12/28 05:36:20;;;;;;;23.00;16.70;;;23.60;40.80;;;;;;214274;1309;22686;-57
2021/12/28 05:41:24;;;;;;;22.50;16.60;;;23.60;40.60;;;;;;214292;1309;24236;-56
2021/12/28 05:46:28;;;;;;;23.10;16.90;;;23.50;41.10;;;;;;214159;1316;22609;-57
2021/12/28 05:51:32;;;;;;;24.20;17.30;;;23.50;40.80;;;;;;214358;1313;26941;-57
2021/12/28 05:56:36;;;;;;;22.70;16.20;;;23.50;40.70;;;;;;214131;1310;24094;-58
2021/12/28 06:01:40;;;;;;;23.10;16.50;;;23.50;40.70;;;;;;214169;1315;22554;-56
2021/12/28 06:06:44;;;;;;;22.70;17.20;;;23.60;40.60;;;;;;214258;1310;22643;-57
2021/12/28 06:11:47;;;;;;;23.40;16.40;;;23.60;40.60;;;;;;214165;1309;22581;-55
2021/12/28 06:16:51;;;;;;;21.60;16.40;;;23.60;40.50;;;;;;214151;1314;22568;-56
2021/12/28 06:21:57;;;;;;;22.80;17.00;;;23.60;41.00;;;;;;214254;1309;22655;-59
2021/12/28 06:27:04;;;;;;;21.90;16.70;;;23.80;40.30;;;;;;214323;1309;23244;-57
2021/12/28 06:32:08;;;;;;;22.20;15.80;;;23.70;40.30;;;;;;214187;1313;24245;-56
2021/12/28 06:37:13;;;;;;;22.50;16.80;;;23.70;40.60;;;;;;214287;1310;22640;-57
2021/12/28 06:42:17;;;;;;;24.20;17.10;;;23.70;40.50;;;;;;214024;1312;22626;-57
2021/12/28 06:47:20;;;;;;;21.60;15.90;;;23.60;40.90;;;;;;214514;1314;22585;-58
2021/12/28 06:52:26;;;;;;;21.70;16.10;;;23.60;40.80;;;;;;213936;1316;22716;-58
2021/12/28 06:57:30;;;;;;;23.20;16.70;;;23.60;40.70;;;;;;213765;1315;24283;-59
2021/12/28 07:02:34;;;;;;;24.60;16.80;;;23.70;40.90;;;;;;214021;1312;24334;-57
2021/12/28 07:07:39;;;;;;;21.30;16.30;;;23.70;40.90;;;;;;213917;1315;22633;-56
2021/12/28 07:12:44;;;;;;;24.00;17.30;;;23.70;41.70;;;;;;214056;1312;22733;-58
2021/12/28 07:17:49;;;;;;;26.90;16.30;;;23.80;41.40;;;;;;214108;1313;22786;-58
2021/12/28 07:22:53;;;;;;;24.90;16.30;;;23.80;41.30;;;;;;213933;1318;26572;-58
2021/12/28 07:27:56;;;;;;;25.70;15.20;;;23.80;42.10;;;;;;214181;1318;24370;-57
2021/12/28 07:33:00;;;;;;;21.00;15.00;;;23.80;42.60;;;;;;214267;1315;22609;-57
2021/12/28 07:38:07;;;;;;;26.20;15.70;;;23.80;42.10;;;;;;213956;1312;23197;-58
2021/12/28 07:43:16;;;;;;;23.80;15.00;;;23.80;42.10;;;;;;213796;1315;22633;-59
2021/12/28 07:48:34;;;;;;;34.80;15.60;;;23.80;42.40;;;;;;214053;1315;25487;-58
2021/12/28 07:53:39;;;;;;;27.00;15.90;;;23.70;42.50;;;;;;213685;1315;24419;-57
2021/12/28 07:58:44;;;;;;;28.60;15.90;;;23.70;43.00;;;;;;213716;1313;22625;-57
2021/12/28 08:03:48;;;;;;;30.80;17.50;;;23.70;42.50;;;;;;213504;1317;24240;-60
2021/12/28 08:08:52;;;;;;;25.60;16.00;;;23.70;43.10;;;;;;213868;1314;22602;-59
2021/12/28 08:13:55;;;;;;;34.10;17.80;;;23.70;42.90;;;;;;213921;1312;24248;-58
2021/12/28 08:18:59;;;;;;;27.10;17.60;;;23.60;41.70;;;;;;213561;1312;22609;-57
2021/12/28 08:24:19;;;;;;;27.30;17.30;;;23.60;41.90;;;;;;213390;1313;24380;-56
2021/12/28 08:29:30;;;;;;;25.00;16.80;;;23.60;41.60;;;;;;213925;1312;22658;-57
2021/12/28 08:34:36;;;;;;;26.70;17.50;;;23.70;41.80;;;;;;214132;1313;22580;-56
2021/12/28 08:39:41;;;;;;;26.70;17.50;;;23.70;41.30;;;;;;214183;1312;22749;-55
2021/12/28 08:44:44;;;;;;;27.10;17.70;;;23.60;41.60;;;;;;214415;1309;24352;-57
2021/12/28 08:49:48;;;;;;;26.50;17.80;;;23.70;41.00;;;;;;214114;1314;24372;-59
2021/12/28 08:54:53;;;;;;;26.30;17.50;;;23.80;40.80;;;;;;214369;1318;22615;-55
2021/12/28 08:59:57;;;;;;;23.40;16.40;;;23.80;40.80;;;;;;213943;1318;25345;-58
2021/12/28 09:05:00;;;;;;;30.20;18.50;;;23.80;40.70;;;;;;210572;1316;5072983;-58
2021/12/28 09:10:06;;;;;;;25.10;17.40;;;23.80;40.80;;;;;;214023;1319;24590;-55
2021/12/28 09:15:10;;;;;;;27.10;17.60;;;23.60;40.80;;;;;;214282;1318;22590;-56
2021/12/28 09:20:18;;;;;;;23.90;17.50;;;23.60;40.80;;;;;;214404;1318;26549;-56
2021/12/28 09:25:40;;;;;;;24.50;17.50;;;23.60;40.30;;;;;;214501;1310;22581;-55
2021/12/28 09:30:44;;;;;;;25.30;16.90;;;23.60;40.80;;;;;;214323;1319;22620;-56
2021/12/28 09:35:48;;;;;;;22.40;17.30;;;23.60;40.70;;;;;;214741;1316;22660;-56
2021/12/28 09:40:54;;;;;;;23.90;17.40;;;23.60;40.90;;;;;;214745;1316;22574;-57
2021/12/28 09:45:57;;;;;;;24.20;16.80;;;23.60;40.50;;;;;;214736;1317;22645;-57
2021/12/28 09:51:07;;;;;;;22.20;17.00;;;23.60;40.30;;;;;;214433;1317;24363;-57
2021/12/28 09:56:16;;;;;;;24.80;16.90;;;23.60;40.40;;;;;;214449;1317;22587;-56
2021/12/28 10:01:36;;;;;;;23.70;17.30;;;23.70;40.20;;;;;;214319;1316;27055;-58
2021/12/28 10:07:24;;;;;;;25.00;17.40;;;23.70;40.10;;;;;;214485;1315;22726;-55
2021/12/28 10:12:35;;;;;;;23.90;17.60;;;23.70;40.20;;;;;;214500;1316;24392;-55
2021/12/28 10:17:42;;;;;;;24.10;16.90;;;23.60;40.00;;;;;;214445;1315;22562;-55
2021/12/28 10:22:53;;;;;;;25.70;17.50;;;23.60;40.10;;;;;;214307;1316;24332;-57
2021/12/28 10:28:00;;;;;;;26.50;17.50;;;23.60;40.10;;;;;;214564;1316;23040;-59
2021/12/28 10:33:07;;;;;;;25.90;17.80;;;23.60;40.10;;;;;;214345;1315;22567;-57
2021/12/28 10:38:15;;;;;;;25.50;18.80;;;23.60;40.10;;;;;;214516;1316;22564;-53
2021/12/28 10:43:28;;;;;;;23.60;16.50;;;23.60;40.00;;;;;;214302;1315;22611;-59
2021/12/28 10:48:38;;;;;;;25.10;17.20;;;23.60;40.10;;;;;;214374;1316;22686;-56
2021/12/28 10:54:06;;;;;;;26.50;17.80;;;23.60;40.00;;;;;;214464;1316;24263;-57
2021/12/28 10:59:12;;;;;;;27.50;18.20;;;23.60;40.30;;;;;;214491;1315;24286;-56
2021/12/28 11:04:18;;;;;;;28.20;17.30;;;23.60;39.90;;;;;;214474;1316;22856;-57
2021/12/28 11:09:27;;;;;;;28.70;19.00;;;23.60;39.90;;;;;;214481;1316;22718;-56
2021/12/28 11:14:34;;;;;;;25.90;18.00;;;23.60;39.80;;;;;;214409;1316;23973;-57
2021/12/28 11:19:38;;;;;;;26.20;17.00;;;23.50;39.80;;;;;;214510;1314;22780;-57
2021/12/28 11:24:46;;;;;;;27.20;17.20;;;23.60;40.20;;;;;;214787;1315;25370;-54
2021/12/28 11:29:49;;;;;;;27.30;17.10;;;23.50;39.40;;;;;;214339;1316;24250;-58
2021/12/28 11:34:53;;;;;;;25.60;17.60;;;23.60;39.90;;;;;;214335;1315;24253;-56
2021/12/28 11:40:00;;;;;;;29.20;18.40;;;23.60;39.90;;;;;;214530;1315;22574;-56
2021/12/28 11:45:06;;;;;;;26.40;18.20;;;23.60;39.80;;;;;;214409;1316;24413;-53
2021/12/28 11:50:11;;;;;;;27.00;18.00;;;23.60;39.70;;;;;;214369;1316;25392;-56
2021/12/28 11:55:15;;;;;;;26.30;18.00;;;23.60;39.90;;;;;;214395;1316;24261;-59
2021/12/28 12:00:21;;;;;;;27.10;17.40;;;23.60;39.70;;;;;;214431;1315;23126;-57
2021/12/28 12:05:27;;;;;;;29.40;18.40;;;23.60;39.80;;;;;;214408;1316;22564;-58
2021/12/28 12:10:34;;;;;;;27.80;16.80;;;23.60;39.70;;;;;;214348;1314;22744;-60
2021/12/28 12:15:41;;;;;;;25.30;18.50;;;23.50;39.70;;;;;;214550;1315;25820;-57
2021/12/28 12:20:48;;;;;;;27.90;17.60;;;23.50;39.70;;;;;;214432;1312;24287;-57
2021/12/28 12:26:08;;;;;;;26.90;17.90;;;23.60;39.60;;;;;;214057;1316;25528;-56
2021/12/28 12:31:23;;;;;;;24.70;17.20;;;23.60;39.70;;;;;;214934;1316;22640;-56
2021/12/28 12:36:34;;;;;;;25.30;17.20;;;23.60;40.00;;;;;;214211;1318;26789;-56
2021/12/28 12:41:51;;;;;;;30.40;17.50;;;23.60;39.60;;;;;;214544;1315;24244;-57
2021/12/28 12:47:06;;;;;;;26.80;17.60;;;23.60;39.70;;;;;;214507;1315;25344;-58
2021/12/28 12:52:16;;;;;;;27.20;18.10;;;23.60;39.60;;;;;;214499;1316;26740;-58
2021/12/28 12:57:25;;;;;;;22.10;16.50;;;23.50;39.40;;;;;;214524;1316;22696;-56
2021/12/28 13:02:34;;;;;;;25.10;16.70;;;23.60;39.60;;;;;;214533;1316;22569;-56
2021/12/28 13:07:39;;;;;;;25.70;17.70;;;23.50;39.60;;;;;;214449;1316;23206;-57
2021/12/28 13:12:54;;;;;;;23.60;16.80;;;23.50;39.50;;;;;;214595;1316;22667;-57
2021/12/28 13:18:06;;;;;;;25.40;17.50;;;23.60;39.60;;;;;;214491;1315;22588;-57
2021/12/28 13:23:12;;;;;;;27.70;18.60;;;23.60;39.70;;;;;;214497;1315;22667;-57
2021/12/28 13:28:20;;;;;;;24.40;18.00;;;23.60;39.60;;;;;;214531;1316;22575;-56
2021/12/28 13:33:29;;;;;;;;;;;23.60;39.50;;;;;;214687;1316;24277;-57
2021/12/28 13:38:39;;;;;;;25.10;17.40;;;23.50;39.50;;;;;;214362;1315;25374;-57
2021/12/28 13:43:48;;;;;;;25.50;17.20;;;23.50;40.00;;;;;;214143;1316;25364;-54
2021/12/28 13:48:53;;;;;;;25.00;18.00;;;23.50;39.60;;;;;;214505;1316;22630;-55
2021/12/28 13:54:04;;;;;;;23.40;17.20;;;23.50;39.60;;;;;;214432;1316;22626;-57
2021/12/28 13:59:10;;;;;;;27.00;17.80;;;23.50;39.50;;;;;;214446;1316;26734;-55
2021/12/28 14:04:22;;;;;;;26.00;19.10;;;23.50;39.40;;;;;;214518;1316;24326;-57
2021/12/28 14:09:37;;;;;;;24.90;17.10;;;23.50;39.30;;;;;;214204;1316;22574;-55
2021/12/28 14:15:12;;;;;;;25.00;18.00;;;23.60;39.30;;;;;;214488;1315;24339;-57
2021/12/28 14:20:29;;;;;;;22.60;16.50;;;23.60;39.30;;;;;;214339;1315;24288;-56
2021/12/28 14:26:14;;;;;;;24.70;16.60;;;23.60;39.30;;;;;;214444;1315;22731;-57
2021/12/28 14:32:24;;;;;;;24.20;16.60;;;23.50;39.40;;;;;;214255;1315;24332;-57
2021/12/28 14:37:35;;;;;;;25.10;17.00;;;23.50;39.40;;;;;;214463;1316;22745;-57
2021/12/28 14:42:51;;;;;;;23.70;17.20;;;23.50;39.50;;;;;;214309;1315;22701;-58
2021/12/28 14:48:35;;;;;;;22.50;16.60;;;23.50;39.60;;;;;;214309;1315;22578;-57
2021/12/28 14:54:05;;;;;;;24.10;17.50;;;23.50;39.40;;;;;;214292;1316;25603;-56
2021/12/28 14:59:22;;;;;;;25.40;17.70;;;23.50;39.30;;;;;;214194;1316;24248;-55
2021/12/28 15:04:39;;;;;;;25.50;17.20;;;23.60;39.30;;;;;;214315;1318;25347;-57
2021/12/28 15:09:52;;;;;;;24.70;17.20;;;23.60;39.50;;;;;;214314;1316;24281;-58
2021/12/28 15:15:12;;;;;;;27.30;17.90;;;23.60;39.30;;;;;;213725;1319;25917;-58
2021/12/28 15:20:23;;;;;;;25.80;16.80;;;23.50;39.60;;;;;;213488;1320;22602;-54
2021/12/28 15:25:31;;;;;;;25.90;17.30;;;23.50;39.20;;;;;;213650;1317;24272;-57
2021/12/28 15:30:39;;;;;;;25.50;16.80;;;23.50;39.30;;;;;;213717;1318;25337;-58
2021/12/28 15:35:46;;;;;;;25.30;17.00;;;23.50;39.70;;;;;;214311;1318;22733;-58
2021/12/28 15:40:52;;;;;;;26.70;18.00;;;23.50;39.30;;;;;;214259;1318;24254;-58
2021/12/28 15:45:56;;;;;;;26.20;16.70;;;23.50;39.20;;;;;;214636;1318;22614;-56
2021/12/28 15:51:00;;;;;;;24.80;17.10;;;23.60;39.30;;;;;;214344;1318;22653;-57
2021/12/28 15:56:04;;;;;;;27.30;17.40;;;23.60;39.10;;;;;;214304;1316;22774;-58
2021/12/28 16:01:17;;;;;;;23.70;17.10;;;23.60;39.50;;;;;;214385;1316;25485;-55
2021/12/28 16:06:25;;;;;;;24.30;16.90;;;23.50;39.40;;;;;;213903;1318;22616;-56
2021/12/28 16:11:44;;;;;;;22.80;16.80;;;23.50;39.10;;;;;;214276;1317;25531;-57
2021/12/28 16:16:59;;;;;;;27.00;17.10;;;23.50;39.10;;;;;;214559;1315;24364;-56
2021/12/28 16:22:37;;;;;;;23.10;16.30;;;23.50;39.10;;;;;;214279;1317;26524;-58
2021/12/28 16:27:43;;;;;;;22.80;16.40;;;23.50;38.90;;;;;;214464;1315;25434;-56
2021/12/28 16:33:10;;;;;;;24.80;17.80;;;23.50;39.30;;;;;;214114;1317;22654;-57
2021/12/28 16:38:27;;;;;;;23.70;16.70;;;23.50;39.10;;;;;;214265;1316;25502;-56
2021/12/28 16:49:18;;;;;;;22.80;16.30;;;23.50;39.00;;;;;;214358;1316;22577;-56
2021/12/28 16:54:29;;;;;;;21.60;15.00;;;23.50;39.10;;;;;;214136;1315;22571;-54
2021/12/28 16:59:36;;;;;;;23.70;15.90;;;23.50;39.10;;;;;;214350;1315;22570;-61
2021/12/28 17:04:41;;;;;;;21.10;15.40;;;23.50;39.00;;;;;;214006;1315;475080;-59
2021/12/28 17:09:47;;;;;;;21.90;16.10;;;23.50;39.50;;;;;;214305;1315;25746;-59
2021/12/28 17:14:51;;;;;;;23.80;16.60;;;23.50;39.20;;;;;;214313;1315;24273;-55
2021/12/28 17:19:57;;;;;;;21.00;15.40;;;23.40;39.20;;;;;;214385;1316;24321;-60
2021/12/28 17:25:00;;;;;;;22.00;15.60;;;23.50;39.00;;;;;;214288;1315;24409;-60
2021/12/28 17:30:10;;;;;;;21.40;15.50;;;23.50;39.00;;;;;;214346;1315;24272;-58
2021/12/28 17:35:16;;;;;;;20.00;14.70;;;23.50;38.90;;;;;;214480;1316;24163;-57
2021/12/28 17:40:20;;;;;;;22.60;16.30;;;23.50;38.90;;;;;;214305;1315;22593;-55
2021/12/28 17:45:28;;;;;;;21.30;15.10;;;23.50;39.00;;;;;;214441;1315;22590;-58
2021/12/28 17:50:38;;;;;;;19.90;15.00;;;23.50;39.00;;;;;;214251;1316;25370;-56
2021/12/28 17:55:43;;;;;;;20.70;14.80;;;23.50;39.30;;;;;;214416;1316;22566;-57
2021/12/28 18:00:54;;;;;;;21.40;15.40;;;23.50;39.00;;;;;;214296;1316;24398;-57
2021/12/28 18:06:05;;;;;;;19.10;13.50;;;23.50;39.00;;;;;;214327;1316;24274;-57
2021/12/28 18:11:15;;;;;;;21.40;14.50;;;23.50;38.90;;;;;;214449;1316;25402;-58
2021/12/28 18:16:25;;;;;;;18.70;13.90;;;23.50;39.00;;;;;;214297;1316;25556;-57
2021/12/28 18:21:31;;;;;;;20.30;14.50;;;23.50;38.90;;;;;;213783;1318;22633;-59
2021/12/28 18:26:35;;;;;;;20.30;14.10;;;23.50;38.90;;;;;;214093;1315;25589;-58
2021/12/28 18:31:39;;;;;;;18.60;12.90;;;23.50;39.30;;;;;;214577;1316;24305;-58
2021/12/28 18:36:43;;;;;;;19.20;13.30;;;23.50;39.00;;;;;;214311;1316;24326;-54
2021/12/28 18:41:51;;;;;;;18.80;13.80;;;23.50;39.00;;;;;;214491;1316;25692;-55
2021/12/28 18:46:58;;;;;;;19.60;14.00;;;23.50;38.90;;;;;;213905;1318;25838;-56
2021/12/28 18:52:09;;;;;;;20.40;13.90;;;23.50;39.30;;;;;;213980;1318;24372;-55
2021/12/28 18:57:16;;;;;;;17.50;13.00;;;23.50;38.90;;;;;;214056;1318;24306;-55
2021/12/28 19:02:22;;;;;;;18.30;13.50;;;23.50;38.80;;;;;;214253;1318;22820;-59
2021/12/28 19:07:41;;;;;;;19.10;13.50;;;23.50;39.10;;;;;;214329;1316;25671;-56
2021/12/28 19:12:45;;;;;;;20.20;13.20;;;23.60;38.90;;;;;;214340;1316;24338;-57
2021/12/28 19:18:25;;;;;;;18.70;13.30;;;23.50;38.60;;;;;;214295;1317;22728;-56
2021/12/28 19:23:36;;;;;;;18.40;13.70;;;23.50;38.80;;;;;;214372;1317;25499;-52
2021/12/28 19:29:04;;;;;;;19.70;13.50;;;23.50;39.10;;;;;;214526;1315;22580;-56
2021/12/28 19:34:15;;;;;;;18.50;13.00;;;23.50;38.90;;;;;;214625;1315;24245;-56
2021/12/28 19:39:23;;;;;;;17.00;12.80;;;23.50;38.80;;;;;;214116;1309;22618;-57
2021/12/28 19:44:32;;;;;;;22.50;14.20;;;23.50;38.90;;;;;;214440;1314;22590;-56
2021/12/28 19:49:37;;;;;;;23.30;14.40;;;23.40;38.50;;;;;;214427;1313;24272;-57
2021/12/28 19:54:47;;;;;;;19.00;12.30;;;23.40;38.60;;;;;;213980;1313;24443;-54
2021/12/28 20:00:11;;;;;;;19.20;12.60;;;23.40;39.10;;;;;;214052;1309;25454;-56
2021/12/28 20:05:22;;;;;;;19.60;11.90;;;23.50;39.10;;;;;;214431;1315;22854;-56
2021/12/28 20:10:46;;;;;;;22.20;12.90;;;23.60;39.20;;;;;;214441;1315;22614;-59
2021/12/28 20:16:09;;;;;;;19.60;12.50;;;23.50;39.30;;;;;;214510;1315;22564;-57
2021/12/28 20:21:27;;;;;;;22.10;12.10;;;23.50;39.50;;;;;;214308;1309;22568;-56
2021/12/28 20:26:38;;;;;;;21.00;12.70;;;23.40;39.90;;;;;;214485;1309;22658;-56
2021/12/28 20:31:51;;;;;;;25.80;11.90;;;23.40;40.10;;;;;;214437;1310;22566;-59
2021/12/28 20:37:00;;;;;;;20.90;12.20;;;23.40;40.20;;;;;;214476;1309;22652;-56
2021/12/28 20:42:08;;;;;;;20.50;12.30;;;23.40;40.20;;;;;;214310;1309;25438;-58
2021/12/28 20:47:18;;;;;;;18.60;11.50;;;23.50;40.30;;;;;;214277;1309;22605;-58
2021/12/28 20:52:33;;;;;;;18.70;10.90;;;23.50;40.90;;;;;;214278;1312;22583;-55
2021/12/28 20:57:39;;;;;;;25.60;10.90;;;23.70;41.00;;;;;;214356;1315;25339;-56
2021/12/28 21:02:45;;;;;;;25.40;11.20;;;23.80;41.40;;;;;;214198;1309;22580;-58
2021/12/28 21:07:58;;;;;;;18.90;10.20;;;23.70;41.30;;;;;;213600;1311;22631;-56
2021/12/28 21:13:02;;;;;;;18.30;9.80;;;23.60;42.20;;;;;;214059;1309;25574;-57
2021/12/28 21:18:43;;;;;;;16.20;9.60;;;23.70;41.60;;;;;;213995;1310;25556;-56
2021/12/28 21:23:53;;;;;;;18.70;10.50;;;23.70;41.80;;;;;;213541;1312;22700;-56
2021/12/28 21:29:11;;;;;;;19.80;9.90;;;23.70;42.30;;;;;;214132;1309;23240;-58
2021/12/28 21:34:16;;;;;;;18.30;9.80;;;23.60;41.80;;;;;;214338;1315;22743;-58
2021/12/28 21:39:44;;;;;;;17.10;9.80;;;23.60;42.00;;;;;;213749;1318;26618;-57
2021/12/28 21:44:57;;;;;;;15.20;9.50;;;23.50;42.10;;;;;;215287;1315;24124;-57
2021/12/28 21:50:09;;;;;;;15.90;10.10;;;23.50;41.80;;;;;;214355;1315;25512;-59
2021/12/28 21:55:34;;;;;;;15.40;9.00;;;23.50;41.80;;;;;;213622;1319;22673;-55
2021/12/28 22:00:39;;;;;;;14.50;9.60;;;23.50;42.10;;;;;;214316;1310;24584;-61
2021/12/28 22:05:44;;;;;;;14.30;9.70;;;23.60;42.70;;;;;;214102;1309;22581;-61
2021/12/28 22:10:55;;;;;;;20.10;10.30;;;23.60;43.10;;;;;;214180;1309;22722;-59
2021/12/28 22:16:09;;;;;;;15.90;8.90;;;23.60;43.40;;;;;;214183;1309;23783;-60
2021/12/28 22:21:23;;;;;;;18.60;9.40;;;23.70;43.90;;;;;;214119;1309;22661;-59
2021/12/28 22:26:27;;;;;;;17.30;9.50;;;23.70;43.50;;;;;;213791;1315;22525;-59
2021/12/28 22:31:32;;;;;;;22.10;10.10;;;23.70;43.50;;;;;;214501;1316;25551;-58
2021/12/28 22:36:49;;;;;;;22.20;9.80;;;23.70;43.30;;;;;;214484;1317;24355;-61
2021/12/28 22:42:10;;;;;;;15.50;9.20;;;23.70;43.40;;;;;;214253;1312;22815;-61
2021/12/28 22:47:17;;;;;;;13.90;9.10;;;23.70;43.50;;;;;;214507;1317;22637;-59
2021/12/28 22:52:24;;;;;;;14.80;8.70;;;23.80;43.40;;;;;;213795;1318;25625;-60
2021/12/28 22:58:11;;;;;;;;;;;;;;;;;;;;;
2021/12/28 23:03:41;;;;;;;14.60;8.20;;;23.70;43.30;;;;;;214444;1309;25516;-60
2021/12/28 23:08:57;;;;;;;12.70;8.10;;;23.70;43.40;;;;;;214447;1310;22577;-59
2021/12/28 23:14:05;;;;;;;15.10;8.00;;;23.70;43.20;;;;;;214182;1309;22592;-61
2021/12/28 23:19:13;;;;;;;14.70;8.20;;;23.70;43.20;;;;;;213809;1312;22209;-59
2021/12/28 23:24:19;;;;;;;13.00;7.90;;;23.80;43.10;;;;;;213962;1314;22592;-58
2021/12/28 23:29:27;;;;;;;11.60;7.90;;;23.70;43.10;;;;;;214268;1310;22670;-60
2021/12/28 23:34:34;;;;;;;11.30;7.70;;;23.80;42.90;;;;;;214027;1312;22747;-60
2021/12/28 23:39:43;;;;;;;11.00;7.50;;;23.80;42.80;;;;;;213586;1312;22766;-59
2021/12/28 23:44:50;;;;;;;12.40;8.20;;;23.80;42.80;;;;;;213358;1316;22609;-61
2021/12/28 23:50:02;;;;;;;13.70;7.40;;;23.80;42.70;;;;;;214193;1312;26723;-60
2021/12/28 23:55:19;;;;;;;10.70;7.60;;;23.80;43.00;;;;;;213928;1309;22640;-59
